Time;durP1;ratioP1;P1;durP2;ratioP2;P2;SDS_P1;SDS_P2;PMS_P1;PMS_P2;Temp;Humidity;BMP_temperature;BMP_pressure;BME280_temperature;BME280_humidity;BME280_pressure;Samples;Min_cycle;Max_cycle;Signal;HPM_P1;HPM_P2
2022/04/18 00:00:26;;;;;;;6.50;6.00;;;4.70;99.90;;;5.46;66.48;98280.25;5212963;28;20206;-57
2022/04/18 00:03:03;;;;;;;5.57;5.17;;;4.60;99.90;;;5.47;66.34;98276.97;5212993;28;20224;-52
2022/04/18 00:05:36;;;;;;;6.97;6.40;;;4.60;99.90;;;5.48;66.64;98273.66;5218828;28;20645;-57
2022/04/18 00:08:10;;;;;;;6.47;5.97;;;4.60;99.90;;;5.45;66.68;98273.41;5215907;28;20304;-54
2022/04/18 00:10:44;;;;;;;6.67;6.17;;;4.60;99.90;;;5.35;66.70;98267.59;5212270;28;20233;-54
2022/04/18 00:13:18;;;;;;;6.80;6.37;;;4.50;99.90;;;5.43;66.31;98275.81;5212902;28;20203;-54
2022/04/18 00:15:51;;;;;;;6.30;5.80;;;4.50;99.90;;;5.35;66.94;98259.06;5213193;28;20283;-56
2022/04/18 00:18:24;;;;;;;5.73;5.33;;;4.40;99.90;;;5.27;66.67;98258.44;5212189;28;20494;-54
2022/04/18 00:20:57;;;;;;;6.50;6.00;;;4.40;99.90;;;5.18;67.28;98265.28;5212893;28;20964;-54
2022/04/18 00:23:30;;;;;;;6.33;5.83;;;4.30;99.90;;;5.16;67.64;98264.25;5213201;28;20288;-57
2022/04/18 00:26:05;;;;;;;5.90;5.47;;;4.30;99.90;;;5.17;67.41;98261.84;5213091;28;20716;-54
2022/04/18 00:28:38;;;;;;;6.43;5.93;;;4.30;99.90;;;5.09;68.20;98256.88;5213581;28;20253;-52
2022/04/18 00:31:11;;;;;;;7.60;6.90;;;4.20;99.90;;;5.00;67.57;98251.06;5217058;28;20215;-56
2022/04/18 00:33:44;;;;;;;6.30;5.73;;;4.20;99.90;;;5.02;68.13;98249.53;5216451;28;20214;-53
2022/04/18 00:36:17;;;;;;;6.33;5.93;;;4.10;99.90;;;5.01;67.42;98247.75;5217432;28;20315;-56
2022/04/18 00:38:50;;;;;;;5.40;5.00;;;4.10;99.90;;;4.91;68.12;98244.44;5216337;28;20294;-56
2022/04/18 00:41:25;;;;;;;6.30;5.73;;;4.00;99.90;;;4.82;69.07;98241.13;5215117;28;20650;-57
2022/04/18 00:43:58;;;;;;;5.90;5.37;;;4.00;99.90;;;4.79;68.75;98237.47;5217113;28;20211;-54
2022/04/18 00:46:32;;;;;;;6.17;5.77;;;3.90;99.90;;;4.69;68.66;98235.78;5215938;28;20656;-55
2022/04/18 00:49:05;;;;;;;7.67;6.30;;;3.70;99.90;;;4.77;67.69;98242.38;5215807;28;20229;-53
2022/04/18 00:51:38;;;;;;;6.20;5.80;;;3.70;99.90;;;4.60;68.29;98243.47;5216746;28;20238;-56
2022/04/18 00:54:12;;;;;;;5.63;5.20;;;3.60;99.90;;;4.56;68.67;98243.09;5218173;28;20642;-55
2022/04/18 00:56:47;;;;;;;5.60;5.20;;;3.60;99.90;;;4.55;69.06;98238.75;5221817;28;20240;-54
2022/04/18 00:59:21;;;;;;;6.30;5.80;;;3.60;99.90;;;4.50;69.54;98231.69;5224500;28;20247;-57
2022/04/18 01:01:54;;;;;;;6.23;5.63;;;3.60;99.90;;;4.45;69.51;98230.38;5220612;28;20232;-52
2022/04/18 01:04:28;;;;;;;6.80;6.30;;;3.60;99.90;;;4.38;70.25;98229.72;5220326;28;20562;-54
2022/04/18 01:07:02;;;;;;;6.00;5.50;;;3.60;99.90;;;4.44;70.37;98228.63;5226266;28;20263;-53
2022/04/18 01:09:36;;;;;;;6.27;5.80;;;3.70;99.90;;;4.39;69.93;98223.91;5222419;28;20213;-54
2022/04/18 01:12:11;;;;;;;6.40;5.90;;;3.60;99.90;;;4.43;69.58;98224.28;5223030;28;20251;-55
2022/04/18 01:14:48;;;;;;;6.40;6.00;;;3.60;99.90;;;4.40;69.39;98224.03;5220380;28;20685;-54
2022/04/18 01:17:21;;;;;;;7.80;7.20;;;3.60;99.90;;;4.38;71.31;98217.06;5218243;28;20198;-54
2022/04/18 01:19:54;;;;;;;6.97;6.43;;;3.60;99.90;;;4.43;69.64;98218.34;5222609;28;20260;-53
2022/04/18 01:22:29;;;;;;;6.67;6.17;;;3.60;99.90;;;4.46;70.07;98222.06;5225860;28;20203;-55
2022/04/18 01:30:45;;;;;;;6.73;6.13;;;3.50;99.90;;;4.38;70.08;98217.97;5224455;28;20289;-55
2022/04/18 01:33:18;;;;;;;6.23;5.83;;;3.40;99.90;;;4.38;70.53;98217.97;5223802;28;20300;-57
2022/04/18 01:35:51;;;;;;;6.13;5.70;;;3.50;99.90;;;4.37;69.64;98218.72;5221031;28;20319;-56
2022/04/18 01:38:26;;;;;;;6.73;6.13;;;3.40;99.90;;;4.33;69.59;98214.16;5223356;28;20288;-56
2022/04/18 01:40:59;;;;;;;7.00;6.40;;;3.30;99.90;;;4.18;71.21;98216.25;5223381;28;20253;-56
2022/04/18 01:43:32;;;;;;;7.10;6.50;;;3.30;99.90;;;4.04;71.60;98211.63;5221265;28;20289;-57
2022/04/18 01:46:05;;;;;;;7.03;6.43;;;3.20;99.90;;;3.99;70.95;98215.38;5225046;28;20736;-53
2022/04/18 01:48:39;;;;;;;6.47;6.07;;;3.10;99.90;;;3.94;72.25;98209.03;5220308;28;20718;-55
2022/04/18 01:51:12;;;;;;;6.13;5.53;;;3.10;99.90;;;4.00;71.63;98214.63;5215032;28;20202;-54
2022/04/18 01:53:47;;;;;;;6.37;5.93;;;3.10;99.90;;;3.91;71.93;98207.09;5217398;28;20201;-53
2022/04/18 01:56:20;;;;;;;6.57;5.97;;;3.10;99.90;;;3.84;72.97;98212.41;5216366;28;20244;-54
2022/04/18 01:58:53;;;;;;;6.23;5.73;;;3.10;99.90;;;3.91;71.99;98213.81;5223235;28;20285;-53
2022/04/18 02:01:26;;;;;;;6.43;5.93;;;3.10;99.90;;;3.81;72.85;98202.00;5224343;28;20239;-56
2022/04/18 02:03:59;;;;;;;6.40;5.87;;;3.00;99.90;;;3.80;72.69;98195.16;5223299;28;20201;-53
2022/04/18 02:06:32;;;;;;;6.13;5.73;;;3.00;99.90;;;3.85;72.29;98191.41;5222923;28;20228;-57
2022/04/18 02:09:07;;;;;;;6.70;6.10;;;2.90;99.90;;;3.69;72.73;98190.78;5222918;28;20304;-52
2022/04/18 02:11:40;;;;;;;6.30;5.80;;;2.90;99.90;;;3.64;73.28;98197.09;5220320;28;20738;-53
2022/04/18 02:14:13;;;;;;;6.67;6.20;;;2.80;99.90;;;3.64;73.60;98192.94;5217681;28;20189;-54
2022/04/18 02:16:46;;;;;;;6.63;6.13;;;2.90;99.90;;;3.67;72.60;98190.69;5229816;28;20213;-57
2022/04/18 02:19:19;;;;;;;6.00;5.60;;;2.80;99.90;;;3.58;73.41;98189.88;5222773;28;20209;-54
2022/04/18 02:21:52;;;;;;;6.83;6.23;;;2.80;99.90;;;3.57;73.00;98191.47;5218441;28;20243;-56
2022/04/18 02:24:27;;;;;;;6.23;5.77;;;2.80;99.90;;;3.50;73.38;98183.22;5224532;28;20197;-55
2022/04/18 02:27:00;;;;;;;6.37;5.87;;;2.60;99.90;;;3.50;72.91;98191.69;5220635;28;20252;-57
2022/04/18 02:29:33;;;;;;;6.27;5.77;;;2.70;99.90;;;3.49;73.58;98192.47;5224146;28;20365;-53
2022/04/18 02:34:59;;;;;;;7.47;6.87;;;2.60;99.90;;;3.44;74.14;98183.56;5220614;28;20310;-54
2022/04/18 02:37:32;;;;;;;5.67;5.27;;;2.70;99.90;;;3.43;73.42;98181.78;5221686;28;20229;-54
2022/04/18 02:40:08;;;;;;;6.80;6.20;;;2.60;99.90;;;3.47;73.90;98176.28;5221809;28;20197;-56
2022/04/18 02:42:43;;;;;;;6.63;6.13;;;2.60;99.90;;;3.41;74.36;98177.38;5221197;28;20677;-54
2022/04/18 02:45:18;;;;;;;6.80;6.30;;;2.60;99.90;;;3.34;73.44;98164.16;5222634;28;20221;-55
2022/04/18 02:47:52;;;;;;;6.17;5.80;;;2.60;99.90;;;3.37;73.78;98169.47;5225296;28;20569;-52
2022/04/18 02:50:25;;;;;;;6.90;6.30;;;2.50;99.90;;;3.36;73.90;98161.78;5217637;28;20232;-53
2022/04/18 02:52:58;;;;;;;6.73;6.27;;;2.50;99.90;;;3.30;74.15;98166.28;5223563;28;20288;-56
2022/04/18 02:55:32;;;;;;;6.10;5.70;;;2.40;99.90;;;3.24;73.58;98158.19;5222952;28;20650;-55
2022/04/18 02:58:06;;;;;;;6.57;6.07;;;2.40;99.90;;;3.12;73.82;98151.28;5223287;28;20216;-54
2022/04/18 03:00:39;;;;;;;6.20;5.80;;;2.30;99.90;;;3.15;74.42;98151.53;5216185;28;20228;-55
2022/04/18 03:03:12;;;;;;;6.13;5.63;;;2.40;99.90;;;3.15;74.94;98153.19;5220095;28;20288;-54
2022/04/18 03:05:45;;;;;;;7.33;6.83;;;2.40;99.90;;;3.22;75.71;98157.13;5222520;28;20312;-53
2022/04/18 03:08:18;;;;;;;6.83;6.33;;;2.50;99.90;;;3.11;74.34;98154.53;5223277;28;21121;-54
2022/04/18 03:11:05;;;;;;;7.03;6.53;;;2.30;99.90;;;3.06;75.12;98158.28;5221620;28;20296;-55
2022/04/18 03:13:44;;;;;;;6.70;6.30;;;2.20;99.90;;;3.10;74.78;98157.81;5221157;28;20201;-57
2022/04/18 03:16:18;;;;;;;7.30;6.70;;;2.30;99.90;;;3.19;74.72;98156.88;5221685;28;20561;-52
2022/04/18 03:18:51;;;;;;;6.50;5.97;;;2.30;99.90;;;3.07;74.29;98155.00;5223905;28;20212;-53
2022/04/18 03:21:25;;;;;;;6.00;5.50;;;2.20;99.90;;;3.11;74.86;98154.53;5221988;28;20352;-54
2022/04/18 03:23:58;;;;;;;6.97;6.47;;;2.20;99.90;;;3.12;73.72;98151.28;5223824;28;20288;-55
2022/04/18 03:26:32;;;;;;;6.60;6.10;;;2.20;99.90;;;3.07;74.31;98152.47;5222382;28;20240;-56
2022/04/18 03:29:05;;;;;;;6.50;6.00;;;2.20;99.90;;;3.08;74.03;98154.25;5222710;28;20267;-56
2022/04/18 03:31:38;;;;;;;6.60;6.10;;;2.10;99.90;;;3.07;74.08;98162.59;5214626;28;20771;-54
2022/04/18 03:34:12;;;;;;;6.60;6.20;;;2.10;99.90;;;3.05;75.15;98158.13;5222712;28;20356;-53
2022/04/18 03:39:54;;;;;;;6.70;6.23;;;2.10;99.90;;;3.01;75.27;98164.56;5222893;28;20734;-53
2022/04/18 03:42:31;;;;;;;6.60;6.20;;;2.00;99.90;;;2.97;75.07;98162.47;5221226;28;20723;-53
2022/04/18 03:45:06;;;;;;;6.30;5.80;;;2.10;99.90;;;2.98;74.81;98158.34;5221607;28;20217;-55
2022/04/18 03:47:39;;;;;;;6.80;6.30;;;2.00;99.90;;;2.93;75.44;98162.97;5223773;28;20696;-53
2022/04/18 03:50:14;;;;;;;7.20;6.60;;;2.00;99.90;;;2.88;76.51;98151.56;5222360;28;20255;-55
2022/04/18 03:52:47;;;;;;;6.87;6.40;;;2.10;99.90;;;2.89;75.81;98158.38;5221170;28;20200;-53
2022/04/18 03:55:20;;;;;;;6.20;5.80;;;2.10;99.90;;;2.74;76.33;98151.94;5220757;28;20659;-53
2022/04/18 03:57:55;;;;;;;7.10;6.60;;;1.90;99.90;;;2.78;76.25;98159.06;5220840;28;20197;-53
2022/04/18 04:00:28;;;;;;;6.57;6.07;;;2.00;99.90;;;2.77;76.06;98143.00;5223287;28;20593;-56
2022/04/18 04:03:01;;;;;;;6.43;5.97;;;1.90;99.90;;;2.65;75.57;98142.75;5205563;28;20244;-53
2022/04/18 04:05:34;;;;;;;6.33;5.83;;;1.90;99.90;;;2.59;75.21;98141.31;5225939;28;20233;-53
2022/04/18 04:08:08;;;;;;;6.93;6.43;;;1.80;99.90;;;2.53;75.02;98149.22;5221008;28;20208;-54
2022/04/18 04:10:41;;;;;;;7.37;6.77;;;1.70;99.90;;;2.53;75.72;98146.69;5221763;28;20622;-53
2022/04/18 04:13:16;;;;;;;7.03;6.43;;;1.80;99.90;;;2.55;75.59;98146.81;5223541;28;20296;-53
2022/04/18 04:15:49;;;;;;;7.27;6.67;;;1.80;99.90;;;2.61;74.69;98153.34;5226526;28;20664;-55
2022/04/18 04:18:23;;;;;;;7.10;6.60;;;1.80;99.90;;;2.57;75.45;98148.75;5227370;28;20611;-53
2022/04/18 04:20:56;;;;;;;6.70;6.20;;;1.80;99.90;;;2.52;75.49;98144.94;5223829;28;20275;-54
2022/04/18 04:23:29;;;;;;;6.80;6.10;;;1.80;99.90;;;2.59;75.68;98142.22;5222704;28;20288;-53
2022/04/18 04:26:15;;;;;;;7.03;6.33;;;1.80;99.90;;;2.60;75.00;98143.09;5220340;28;20721;-53
2022/04/18 04:28:50;;;;;;;7.03;6.50;;;1.80;99.90;;;2.50;74.63;98133.81;5223882;28;20664;-54
2022/04/18 04:31:23;;;;;;;7.17;6.57;;;1.70;99.90;;;2.29;74.67;98131.81;5225033;28;20236;-55
2022/04/18 04:33:56;;;;;;;7.13;6.43;;;1.50;99.90;;;2.06;75.64;98135.59;5223077;28;20215;-53
2022/04/18 04:36:30;;;;;;;7.43;6.80;;;1.30;99.90;;;1.86;76.44;98132.81;5225201;28;20236;-52
2022/04/18 04:39:03;;;;;;;7.03;6.53;;;1.10;99.90;;;2.06;77.13;98130.56;5219892;28;20278;-52
2022/04/18 04:41:36;;;;;;;6.07;5.67;;;1.30;99.90;;;2.19;76.63;98123.38;5219729;28;20325;-53
2022/04/18 04:44:11;;;;;;;6.80;6.30;;;1.40;99.90;;;2.11;76.43;98121.78;5222330;28;20214;-53
2022/04/18 04:46:45;;;;;;;6.67;6.27;;;1.30;99.90;;;2.10;77.07;98127.56;5223825;28;20250;-54
2022/04/18 04:49:18;;;;;;;7.30;6.70;;;1.40;99.90;;;2.25;76.42;98121.44;5225960;28;20250;-55
2022/04/18 04:51:51;;;;;;;7.33;6.73;;;1.50;99.90;;;2.33;76.15;98123.78;5226463;28;20662;-57
2022/04/18 04:54:25;;;;;;;7.33;6.67;;;1.60;99.90;;;2.36;75.65;98116.50;5223318;28;20203;-57
2022/04/18 04:56:58;;;;;;;6.87;6.27;;;1.60;99.90;;;2.35;75.76;98124.81;5225545;28;20306;-54
2022/04/18 04:59:32;;;;;;;6.10;5.60;;;1.70;99.90;;;2.31;74.31;98123.63;5225069;28;20288;-56
2022/04/18 05:02:06;;;;;;;6.20;5.70;;;1.70;99.90;;;2.41;74.99;98125.41;5224121;28;20285;-55
2022/04/18 05:04:39;;;;;;;7.27;6.67;;;1.80;99.90;;;2.41;75.58;98122.88;5227950;28;20634;-55
2022/04/18 05:07:12;;;;;;;7.23;6.67;;;1.80;99.90;;;2.54;74.67;98123.22;5225228;28;20246;-55
2022/04/18 05:09:46;;;;;;;6.57;6.07;;;1.80;99.90;;;2.56;74.19;98116.69;5226124;28;20318;-56
2022/04/18 05:12:19;;;;;;;6.70;6.27;;;1.90;99.90;;;2.67;74.90;98125.25;5226056;28;20203;-54
2022/04/18 05:14:54;;;;;;;6.30;5.90;;;2.00;99.90;;;2.81;74.54;98134.09;5222159;28;20280;-55
2022/04/18 05:17:27;;;;;;;6.30;5.90;;;2.10;99.90;;;2.90;74.71;98129.88;5221929;28;20293;-54
2022/04/18 05:20:02;;;;;;;6.47;6.07;;;2.20;99.90;;;3.07;73.00;98139.84;5224203;28;20689;-56
2022/04/18 05:22:36;;;;;;;7.07;6.57;;;2.40;99.90;;;3.52;72.59;98147.25;5226435;28;20197;-54
2022/04/18 05:25:10;;;;;;;6.40;5.90;;;2.70;99.90;;;3.98;70.79;98136.09;5223658;28;20256;-57
2022/04/18 05:27:43;;;;;;;6.13;5.73;;;3.00;99.90;;;4.44;69.21;98134.09;5225227;28;20193;-56
2022/04/18 05:30:17;;;;;;;7.03;6.53;;;3.40;99.90;;;4.75;66.77;98127.44;5220923;28;20794;-53
2022/04/18 05:32:51;;;;;;;7.23;6.63;;;3.60;99.90;;;5.42;65.29;98121.97;5222292;28;20634;-56
2022/04/18 05:35:25;;;;;;;6.67;6.10;;;4.10;99.90;;;5.99;63.52;98124.00;5225910;28;20251;-52
2022/04/18 05:37:58;;;;;;;6.30;5.80;;;4.60;99.90;;;6.43;60.77;98108.78;5222828;28;20320;-56
2022/04/18 05:40:31;;;;;;;6.50;6.00;;;5.00;99.70;;;6.94;59.76;98116.06;5225364;28;20221;-55
2022/04/18 05:43:04;;;;;;;6.13;5.60;;;5.50;98.60;;;7.52;57.84;98115.28;5223826;28;20303;-53
2022/04/18 05:45:40;;;;;;;5.97;5.57;;;6.10;97.50;;;7.98;56.86;98108.41;5225090;28;20268;-56
2022/04/18 05:48:13;;;;;;;5.13;4.73;;;6.40;97.00;;;8.25;55.61;98104.38;5221237;28;20193;-54
2022/04/18 05:50:46;;;;;;;5.53;5.13;;;6.70;96.10;;;8.61;54.29;98101.75;5223727;28;20300;-58
2022/04/18 05:53:26;;;;;;;5.63;5.23;;;6.90;96.10;;;8.77;54.04;98112.22;5223675;28;20275;-56
2022/04/18 05:55:59;;;;;;;5.90;5.50;;;7.10;95.50;;;9.07;53.04;98109.94;5223337;28;20296;-53
2022/04/18 05:58:32;;;;;;;5.43;5.03;;;7.20;95.20;;;9.47;52.06;98111.81;5224800;28;20284;-54
2022/04/18 06:01:06;;;;;;;5.80;5.27;;;7.40;94.70;;;9.75;51.15;98111.03;5225119;28;20232;-53
2022/04/18 06:03:40;;;;;;;5.47;5.07;;;7.70;94.10;;;10.00;50.77;98115.16;5224798;28;20192;-54
2022/04/18 06:06:13;;;;;;;5.30;4.80;;;7.70;94.10;;;10.16;49.41;98112.78;5223970;28;20591;-53
2022/04/18 06:08:46;;;;;;;5.10;4.70;;;7.80;93.80;;;10.79;47.71;98115.00;5224620;28;20263;-56
2022/04/18 06:11:20;;;;;;;5.73;5.23;;;8.10;93.00;;;11.01;46.76;98111.13;5224666;28;20220;-53
2022/04/18 06:13:54;;;;;;;4.83;4.47;;;8.10;92.90;;;11.13;47.43;98110.97;5222302;28;20247;-55
2022/04/18 06:16:29;;;;;;;6.20;5.70;;;8.20;93.10;;;11.52;46.04;98107.28;5224112;28;20220;-54
2022/04/18 06:19:02;;;;;;;5.23;4.83;;;8.40;92.50;;;11.48;45.63;98105.38;5220501;28;20201;-52
2022/04/18 06:21:35;;;;;;;5.43;4.97;;;8.40;92.70;;;11.62;45.86;98099.38;5224690;28;20212;-57
2022/04/18 06:24:08;;;;;;;5.43;4.93;;;8.80;92.00;;;12.03;44.74;98095.69;5222851;28;20251;-52
2022/04/18 06:26:42;;;;;;;6.55;6.05;;;9.00;91.50;;;12.14;44.11;98102.28;5215756;28;20575;-55
2022/04/18 06:29:15;;;;;;;5.97;5.43;;;9.30;90.90;;;12.43;43.60;98095.28;5216743;28;20308;-55
2022/04/18 06:31:53;;;;;;;5.55;5.15;;;9.70;90.40;;;12.39;44.09;98093.38;5212482;28;20210;-53
2022/04/18 06:34:27;;;;;;;7.10;6.50;;;9.90;90.40;;;12.14;44.70;98091.16;5214396;28;20284;-57
2022/04/18 06:37:00;;;;;;;7.88;7.28;;;9.90;90.30;;;12.65;44.17;98091.28;5220053;28;20217;-52
2022/04/18 06:39:33;;;;;;;5.65;5.28;;;10.20;90.10;;;12.94;42.41;98091.13;5223291;28;20235;-54
2022/04/18 06:42:06;;;;;;;5.95;5.45;;;10.50;87.80;;;13.03;41.77;98086.47;5221395;28;20328;-56
2022/04/18 06:44:40;;;;;;;6.38;5.82;;;10.60;87.10;;;13.59;41.67;98081.53;5222003;28;20263;-52
2022/04/18 06:47:14;;;;;;;6.13;5.60;;;10.90;86.10;;;14.10;40.13;98080.56;5224567;28;20296;-52
2022/04/18 06:49:48;;;;;;;5.97;5.45;;;11.40;84.60;;;14.03;39.39;98082.81;5224664;28;20590;-52
2022/04/18 06:52:27;;;;;;;5.65;5.25;;;11.50;83.40;;;14.33;38.90;98086.78;5225149;28;20208;-53
2022/04/18 06:55:00;;;;;;;6.18;5.68;;;11.60;83.20;;;14.46;39.28;98089.94;5229662;28;20220;-53
2022/04/18 06:57:32;;;;;;;5.78;5.35;;;11.90;83.20;;;14.68;38.19;98086.66;5222897;28;20245;-52
2022/04/18 07:00:07;;;;;;;5.60;5.10;;;12.10;81.20;;;14.84;38.38;98092.53;5226345;28;20217;-52
2022/04/18 07:02:46;;;;;;;5.90;5.40;;;12.10;80.80;;;15.10;37.40;98091.09;5229670;28;20277;-53
2022/04/18 07:05:19;;;;;;;5.43;4.93;;;12.40;79.40;;;15.38;36.79;98091.41;5220239;28;20307;-58
2022/04/18 07:07:52;;;;;;;4.95;4.55;;;12.70;79.10;;;15.82;36.74;98087.22;5220436;28;20296;-56
2022/04/18 07:10:25;;;;;;;5.63;5.13;;;13.10;78.40;;;15.97;35.36;98085.25;5221868;28;20217;-54
2022/04/18 07:12:58;;;;;;;5.45;5.05;;;13.10;76.80;;;16.12;35.08;98091.00;5220341;28;20244;-56
2022/04/18 07:15:32;;;;;;;5.30;4.80;;;13.10;77.00;;;16.46;34.86;98091.44;5221056;28;20220;-55
2022/04/18 07:18:07;;;;;;;5.28;4.88;;;13.30;76.50;;;16.45;34.10;98087.94;5221807;28;20201;-57
2022/04/18 07:20:41;;;;;;;5.40;4.90;;;13.60;74.50;;;16.81;32.82;98085.88;5220746;28;20227;-56
2022/04/18 07:23:17;;;;;;;5.38;4.80;;;14.00;72.00;;;16.91;31.88;98084.50;5221280;28;20722;-56
2022/04/18 07:25:50;;;;;;;5.22;4.82;;;14.10;70.80;;;17.28;31.51;98084.09;5222442;28;20240;-54
2022/04/18 07:28:23;;;;;;;5.10;4.70;;;14.60;69.30;;;17.40;32.09;98083.66;5222841;28;20632;-52
2022/04/18 07:30:56;;;;;;;5.15;4.75;;;14.60;70.20;;;17.40;31.77;98081.06;5223781;28;20712;-55
2022/04/18 07:33:31;;;;;;;5.35;4.85;;;14.70;69.20;;;17.63;31.31;98076.66;5221044;28;20193;-51
2022/04/18 07:36:04;;;;;;;5.00;4.50;;;14.90;69.20;;;17.19;31.92;98082.91;5218428;28;20251;-57
2022/04/18 07:38:50;;;;;;;5.30;4.78;;;14.80;69.30;;;17.29;32.37;98082.41;5226482;28;20201;-54
2022/04/18 07:41:25;;;;;;;5.20;4.80;;;14.90;70.70;;;17.35;32.52;98077.44;5226392;28;20193;-57
2022/04/18 07:43:59;;;;;;;5.22;4.72;;;15.20;69.40;;;16.83;32.76;98080.78;5227527;28;20239;-53
2022/04/18 07:46:32;;;;;;;5.18;4.70;;;15.10;68.90;;;16.84;32.98;98085.13;5225959;28;20372;-56
2022/04/18 07:49:07;;;;;;;5.72;5.22;;;15.10;68.40;;;16.79;33.13;98079.78;5220745;28;20546;-54
2022/04/18 07:51:42;;;;;;;5.30;4.90;;;15.00;69.20;;;17.03;32.95;98079.78;5222725;28;20303;-55
2022/04/18 07:54:17;;;;;;;5.50;5.10;;;15.30;67.80;;;17.04;33.16;98076.38;5224347;28;20205;-55
2022/04/18 07:56:50;;;;;;;5.47;5.07;;;15.40;68.60;;;16.96;32.42;98088.13;5224722;28;20212;-51
2022/04/18 07:59:23;;;;;;;5.22;4.80;;;15.50;66.60;;;16.63;32.68;98080.91;5226062;28;20259;-53
2022/04/18 08:01:56;;;;;;;5.63;4.90;;;15.00;67.80;;;17.25;31.76;98072.78;5226394;28;20249;-53
2022/04/18 08:04:31;;;;;;;4.90;4.50;;;15.80;65.70;;;17.30;32.01;98071.22;5224248;28;20193;-53
2022/04/18 08:07:05;;;;;;;5.70;5.05;;;16.00;65.80;;;17.35;32.22;98072.28;5226698;28;20580;-54
2022/04/18 08:09:38;;;;;;;5.15;4.75;;;16.20;65.60;;;17.21;32.04;98076.09;5221270;28;20733;-57
2022/04/18 08:12:12;;;;;;;5.22;4.82;;;16.00;65.50;;;17.18;31.75;98070.81;5221869;28;20292;-54
2022/04/18 08:14:45;;;;;;;5.80;5.30;;;16.00;64.60;;;17.45;32.33;98063.09;5225418;28;20197;-52
2022/04/18 08:17:18;;;;;;;5.35;4.95;;;16.20;65.70;;;17.47;30.67;98067.50;5225705;28;20194;-52
2022/04/18 08:19:52;;;;;;;4.80;4.45;;;16.60;62.50;;;17.32;32.12;98067.00;5223119;28;20225;-54
2022/04/18 08:22:25;;;;;;;5.10;4.70;;;16.40;63.80;;;17.37;32.02;98069.72;5225810;28;20242;-51
2022/04/18 08:24:59;;;;;;;4.80;4.38;;;16.60;64.00;;;17.09;31.77;98080.00;5225122;28;20252;-53
2022/04/18 08:27:32;;;;;;;5.57;4.75;;;16.30;62.80;;;16.97;31.32;98074.41;5223980;28;20205;-54
2022/04/18 08:30:06;;;;;;;5.40;4.90;;;16.10;63.20;;;16.88;31.52;98079.22;5225080;28;20252;-52
2022/04/18 08:32:40;;;;;;;5.32;4.93;;;16.20;62.80;;;17.24;31.60;98078.78;5218371;28;20286;-53
2022/04/18 08:35:14;;;;;;;5.32;4.88;;;16.50;63.70;;;17.37;30.30;98075.78;5226983;28;20302;-55
2022/04/18 08:37:48;;;;;;;6.70;4.97;;;16.60;60.80;;;17.21;30.01;98069.22;5226483;28;20196;-52
2022/04/18 08:40:21;;;;;;;5.43;4.93;;;16.30;60.90;;;17.21;30.47;98065.75;5220389;28;20197;-55
2022/04/18 08:42:56;;;;;;;5.20;4.80;;;16.30;61.50;;;16.80;31.12;98080.69;5222075;28;20296;-53
2022/04/18 08:45:29;;;;;;;5.30;4.90;;;16.10;61.90;;;16.76;31.17;98069.34;5225673;28;20234;-54
2022/04/18 08:53:47;;;;;;;5.38;4.88;;;16.60;61.20;;;17.23;30.14;98061.53;5222166;28;20641;-57
2022/04/18 08:56:20;;;;;;;5.30;4.88;;;16.50;60.00;;;16.87;30.71;98049.94;5221871;28;20286;-56
2022/04/18 08:58:53;;;;;;;5.00;4.60;;;16.10;61.10;;;17.05;30.00;98044.56;5222455;28;20201;-55
2022/04/18 09:01:26;;;;;;;4.95;4.57;;;16.40;59.80;;;16.95;30.42;98052.81;5225855;28;20281;-53
2022/04/18 09:04:00;;;;;;;5.40;4.90;;;16.30;59.60;;;17.11;29.38;98042.19;5220078;28;20205;-51
2022/04/18 09:06:39;;;;;;;4.60;4.20;;;16.50;58.70;;;16.72;29.69;98045.94;5225538;28;20221;-53
2022/04/18 09:09:14;;;;;;;4.97;4.57;;;16.30;58.10;;;16.67;28.87;98046.63;5225268;28;20300;-55
2022/04/18 09:11:47;;;;;;;4.72;4.32;;;16.10;58.20;;;16.80;28.76;98044.53;5226393;28;20600;-56
2022/04/18 09:14:21;;;;;;;4.60;4.20;;;16.10;58.30;;;16.51;29.16;98034.00;5225836;28;20232;-56
2022/04/18 09:16:54;;;;;;;4.88;4.47;;;16.20;57.90;;;16.71;29.20;98050.22;5223029;28;20248;-53
2022/04/18 09:19:32;;;;;;;4.75;4.38;;;16.30;57.90;;;16.45;29.96;98046.66;5222035;28;20236;-56
2022/04/18 09:22:07;;;;;;;5.13;4.63;;;15.90;58.50;;;16.62;29.63;98035.25;5221156;28;20637;-54
2022/04/18 09:24:42;;;;;;;5.03;4.57;;;16.00;59.10;;;16.61;29.07;98032.63;5219666;28;20274;-55
2022/04/18 09:27:29;;;;;;;5.00;4.60;;;16.10;58.00;;;16.65;30.31;98037.97;5220265;28;20333;-56
2022/04/18 09:30:05;;;;;;;5.00;4.60;;;16.10;59.10;;;16.58;29.53;98038.56;5218046;28;20224;-57
2022/04/18 09:32:38;;;;;;;4.93;4.53;;;16.20;58.50;;;16.78;29.75;98021.25;5220535;28;20576;-57
2022/04/18 09:35:11;;;;;;;5.07;4.65;;;16.30;58.50;;;16.63;29.74;98021.53;5219312;28;20229;-54
2022/04/18 09:37:46;;;;;;;4.82;4.43;;;16.20;58.10;;;16.41;29.38;98016.41;5221760;28;20228;-52
2022/04/18 09:40:23;;;;;;;5.47;4.43;;;15.90;58.40;;;16.30;29.61;98020.31;5220221;28;20618;-52
2022/04/18 09:42:58;;;;;;;4.68;4.22;;;15.80;58.30;;;16.38;29.84;98024.06;5218445;28;20288;-57
2022/04/18 09:45:38;;;;;;;4.78;4.38;;;15.80;58.30;;;16.27;30.20;98007.31;5218703;28;20615;-55
2022/04/18 09:48:17;;;;;;;4.75;4.35;;;15.80;59.00;;;16.47;29.90;98006.31;5220652;28;20205;-54
2022/04/18 09:51:01;;;;;;;4.95;4.55;;;15.90;59.60;;;16.51;30.06;98005.63;5219211;28;20674;-56
2022/04/18 09:53:38;;;;;;;5.07;4.63;;;16.00;58.90;;;16.79;30.74;98011.78;5220637;28;20684;-55
2022/04/18 09:56:16;;;;;;;4.82;4.43;;;16.40;59.70;;;16.91;29.39;98001.88;5220407;28;20315;-54
2022/04/18 09:58:50;;;;;;;6.72;6.00;;;16.40;58.40;;;17.06;28.98;97996.38;5218720;28;20367;-53
2022/04/18 10:01:37;;;;;;;5.43;4.78;;;16.50;57.90;;;17.13;28.27;98000.03;5220204;28;20227;-54
2022/04/18 10:04:12;;;;;;;5.45;4.07;;;16.60;57.20;;;17.20;28.86;98004.59;5218653;28;20213;-56
2022/04/18 10:06:46;;;;;;;4.35;4.05;;;16.60;58.00;;;16.75;28.72;98000.44;5217059;28;20679;-56
2022/04/18 10:09:22;;;;;;;4.53;4.22;;;16.20;57.60;;;17.08;29.81;97995.59;5221675;28;20625;-52
2022/04/18 10:11:56;;;;;;;5.10;4.28;;;16.50;58.80;;;17.28;28.41;98000.53;5219838;28;20211;-54
2022/04/18 10:14:29;;;;;;;5.20;4.13;;;16.70;57.20;;;17.06;28.22;98010.16;5222813;28;20621;-54
2022/04/18 10:17:05;;;;;;;4.68;4.28;;;16.60;56.70;;;16.81;29.15;98000.69;5220040;28;20582;-52
2022/04/18 10:20:07;;;;;;;4.85;4.32;;;16.30;57.80;;;17.05;31.08;97990.34;5220525;28;20203;-58
2022/04/18 10:23:14;;;;;;;4.85;4.45;;;16.50;60.00;;;17.30;29.74;97991.13;5220662;28;20298;-52
2022/04/18 10:26:35;;;;;;;4.82;4.43;;;16.80;58.90;;;17.17;28.45;97991.53;5219506;28;20263;-54
2022/04/18 10:29:13;;;;;;;3.88;3.58;;;16.70;57.10;;;17.26;28.84;97994.47;5218656;28;20296;-54
2022/04/18 10:31:53;;;;;;;5.20;4.70;;;16.70;57.80;;;16.90;29.35;97979.47;5213276;28;20222;-54
2022/04/18 10:34:31;;;;;;;4.95;4.38;;;16.40;57.80;;;16.88;28.33;97979.44;5219047;28;20217;-53
2022/04/18 10:37:05;;;;;;;5.22;4.82;;;16.30;57.00;;;16.71;28.68;97989.94;5220363;28;20224;-52
2022/04/18 10:39:40;;;;;;;5.45;4.90;;;16.10;56.80;;;16.24;28.55;97973.66;5221476;28;20653;-54
2022/04/18 10:42:22;;;;;;;4.88;4.47;;;15.70;56.70;;;16.51;28.96;97974.66;5218866;28;20228;-58
2022/04/18 10:45:08;;;;;;;4.43;4.03;;;15.80;57.50;;;16.69;29.64;97960.66;5223538;28;20311;-55
2022/04/18 10:48:10;;;;;;;4.05;3.75;;;16.10;58.60;;;16.98;28.43;97951.34;5222243;28;20224;-55
2022/04/18 10:50:47;;;;;;;5.03;4.53;;;16.40;57.30;;;16.96;28.05;97952.97;5207541;28;20228;-55
2022/04/18 10:53:35;;;;;;;4.43;4.13;;;16.40;56.50;;;16.79;28.77;97955.00;5221261;28;20205;-57
2022/04/18 10:56:13;;;;;;;4.80;4.30;;;16.10;57.60;;;17.07;29.65;97951.63;5220674;28;20224;-53
2022/04/18 10:58:50;;;;;;;4.38;4.07;;;16.40;58.30;;;17.03;28.54;97954.94;5221470;28;20284;-54
2022/04/18 11:01:37;;;;;;;4.60;4.20;;;16.50;56.90;;;16.97;28.64;97955.63;5218088;28;20288;-54
2022/04/18 11:04:11;;;;;;;4.53;4.13;;;16.40;57.90;;;16.82;28.38;97950.78;5223840;28;20205;-57
2022/04/18 11:06:51;;;;;;;4.90;4.50;;;16.20;56.40;;;16.66;28.94;97949.38;5219705;28;20229;-56
2022/04/18 11:09:26;;;;;;;4.43;4.03;;;16.10;56.90;;;16.87;28.46;97938.06;5224076;28;20232;-54
2022/04/18 11:12:12;;;;;;;4.95;4.25;;;16.20;56.60;;;16.73;28.16;97949.59;5224401;28;20688;-57
2022/04/18 11:14:51;;;;;;;4.85;4.45;;;16.10;56.90;;;16.75;28.62;97937.63;5222853;28;20204;-58
2022/04/18 11:17:42;;;;;;;4.40;4.03;;;16.10;56.80;;;16.98;28.46;97947.03;5225432;28;20216;-57